Ma 2014. április 17., csütörtök, Rudolf napja van.
cheap cialis

Galéria

A galériában a repüléssel, a rendezvényeinkkel kapcsolatos képeket, videókat és hanfelvételeket találsz...

A galériát folyamatosan töltjük fel tartalommal...


Események

Last month April 2014 Next month
M T W T F S S
week 14 1 2 3 4 5 6
week 15 7 8 9 10 11 12 13
week 16 14 15 16 17 18 19 20
week 17 21 22 23 24 25 26 27
week 18 28 29 30

Szavazás

Mi az, amit szívesen kipróbálnál?

Hőlégballon - 9.1%
Sárkányrepülő - 3%
Ejtőernyő - 12.1%
Motoros repülőgép - 0%
Motoros műrepülőgép - 24.2%
Vitorlázó repülő - 3%
Vadászrepülő - 48.5%

Total votes: 33
The voting for this poll has ended

Következik

Látogatói statisztika



55.2%Hungary Hungary
19.8%United States United States
2.8%Brazil Brazil
2.5%Russian Federation Russian Federation
2.5%Italy Italy
2.2%Germany Germany
1.9%Romania Romania
1.9%Ukraine Ukraine
0.9%Indonesia Indonesia
0.9%Canada Canada

Ma: 4
Tegnap: 5
A héten: 20
Múlt héten: 30
Ebben a hónapban: 87
Múlt hónapban: 171
Összesen: 416


Arcképcsarnok

WindFinder


forrás:windfinder.com

Elérhetőségeink

 
        
                           
 
Telefon:  +3620 777-9000
 
Email:        varigyula@varigyula.hu 
            
            
        
 

Aviation WX

[source: ADDS]
METAR
TAF LHKE 171945Z 1721/1806 02005MPS CAVOK BECMG 1721/1724 01003MPS TAF
TAF LHKE 171945Z 1721/1806 02005MPS CAVOK BECMG 1721/1724 01003MPS =